Time;durP1;ratioP1;P1;durP2;ratioP2;P2;SDS_P1;SDS_P2;PMS_P1;PMS_P2;Temp;Humidity;BMP_temperature;BMP_pressure;BME280_temperature;BME280_humidity;BME280_pressure;Samples;Min_cycle;Max_cycle;Signal;HPM_P1;HPM_P2
2022/10/30 00:02:06;;;;;;;;;7.67;7.67;;;;;20.19;59.90;-19746.81;4988038;27;46394;-78
2022/10/30 00:04:32;;;;;;;;;7.33;4.00;;;;;20.21;60.16;-19747.22;4993609;27;45598;-78
2022/10/30 00:06:57;;;;;;;;;4.33;4.33;;;;;20.19;60.21;-19746.81;5000400;28;45298;-78
2022/10/30 00:09:23;;;;;;;;;9.33;7.33;;;;;20.20;60.09;-19746.94;4994535;27;45509;-78
2022/10/30 00:11:48;;;;;;;;;7.67;7.67;;;;;20.20;60.10;-19746.94;4985332;27;45710;-78
2022/10/30 00:14:13;;;;;;;;;6.00;6.00;;;;;20.17;59.76;-19746.28;4997198;27;45376;-78
2022/10/30 00:16:39;;;;;;;;;6.00;6.00;;;;;19.99;60.14;-19741.47;5026948;27;45456;-77
2022/10/30 00:19:05;;;;;;;;;7.00;7.00;;;;;20.13;59.84;-19745.22;5009004;27;46999;-77
2022/10/30 00:21:31;;;;;;;;;4.33;3.33;;;;;20.09;60.65;-19744.16;4993161;27;45252;-78
2022/10/30 00:23:56;;;;;;;;;8.00;8.00;;;;;19.94;60.79;-19740.28;4980502;27;45528;-78
2022/10/30 00:26:22;;;;;;;;;7.67;7.00;;;;;19.93;60.93;-19740.00;4974715;27;45491;-78
2022/10/30 00:28:51;;;;;;;;;9.50;6.50;;;;;20.01;60.42;-19742.16;4975791;27;46055;-78
2022/10/30 00:31:17;;;;;;;;;8.00;7.00;;;;;20.01;60.51;-19742.16;4984352;27;45329;-77
2022/10/30 00:33:42;;;;;;;;;7.00;6.00;;;;;20.00;60.92;-19741.88;4994531;27;45508;-77
2022/10/30 00:36:08;;;;;;;;;12.67;7.33;;;;;20.00;60.63;-19741.88;4985683;27;45452;-77
2022/10/30 00:38:33;;;;;;;;;6.67;5.33;;;;;20.00;60.67;-19741.88;4981694;27;46980;-78
2022/10/30 00:40:59;;;;;;;;;5.67;5.67;;;;;19.98;61.18;-19741.34;4998893;27;45433;-77
2022/10/30 00:43:39;;;;;;;;;8.33;8.00;;;;;19.99;60.71;-19741.47;5015833;27;45535;-78
2022/10/30 00:46:11;;;;;;;;;7.33;6.00;;;;;19.87;61.46;-19738.28;4981831;28;45473;-77
2022/10/30 00:48:36;;;;;;;;;9.67;7.33;;;;;19.95;60.90;-19740.53;4999632;27;46065;-77
2022/10/30 00:51:06;;;;;;;;;7.00;4.33;;;;;19.95;61.55;-19740.41;4997727;27;45581;-78
2022/10/30 00:53:32;;;;;;;;;8.33;6.67;;;;;19.82;61.53;-19737.22;4979671;27;45371;-78
2022/10/30 00:56:01;;;;;;;;;9.67;9.67;;;;;19.59;61.18;-19731.19;4975228;27;45616;-78
2022/10/30 00:58:32;;;;;;;;;9.67;8.67;;;;;19.74;61.25;-19734.94;4972584;28;45481;-77
2022/10/30 01:01:02;;;;;;;;;5.67;5.67;;;;;19.82;61.90;-19737.06;4984078;27;45542;-78
2022/10/30 01:03:29;;;;;;;;;6.67;6.67;;;;;19.65;61.58;-19732.66;4983814;27;45414;-78
2022/10/30 01:05:59;;;;;;;;;9.00;7.33;;;;;19.59;61.88;-19731.19;4990017;28;45449;-77
2022/10/30 01:08:25;;;;;;;;;10.33;7.33;;;;;19.74;61.67;-19735.06;4981362;27;46275;-71
2022/10/30 01:10:51;;;;;;;;;6.67;6.67;;;;;19.65;61.81;-19732.66;4978915;27;45329;-71
2022/10/30 01:13:21;;;;;;;;;10.33;8.67;;;;;19.71;62.21;-19734.28;4990827;28;45346;-71
2022/10/30 01:15:57;;;;;;;;;13.67;9.67;;;;;19.40;61.97;-19726.25;4982444;27;45485;-72
2022/10/30 01:18:40;;;;;;;;;10.33;7.33;;;;;19.66;62.54;-19732.81;4981748;28;46840;-71
2022/10/30 01:21:17;;;;;;;;;8.67;7.33;;;;;19.64;62.04;-19732.41;4978306;28;45447;-71
2022/10/30 01:23:48;;;;;;;;;6.67;6.67;;;;;19.65;62.51;-19732.66;4980383;27;46643;-71
2022/10/30 01:26:32;;;;;;;;;10.00;10.00;;;;;19.64;62.17;-19732.41;4973332;27;45534;-72
2022/10/30 01:29:25;;;;;;;;;7.67;6.00;;;;;19.63;62.25;-19732.13;4977999;27;46251;-71
2022/10/30 01:31:56;;;;;;;;;7.33;7.33;;;;;19.64;62.36;-19732.41;4992526;27;45430;-71
2022/10/30 01:34:56;;;;;;;;;10.00;6.67;;;;;19.63;62.71;-19732.00;4990700;27;45479;-71
2022/10/30 01:37:44;;;;;;;;;11.67;10.00;;;;;19.57;62.41;-19730.53;5000220;27;45497;-72
2022/10/30 01:40:13;;;;;;;;;4.33;4.33;;;;;19.59;62.50;-19731.19;4990970;27;45518;-72
2022/10/30 01:42:50;;;;;;;;;9.67;8.33;;;;;19.57;62.55;-19730.53;4994096;27;45536;-71
2022/10/30 01:45:25;;;;;;;;;6.67;6.67;;;;;19.55;62.53;-19730.13;5001851;27;45260;-72
2022/10/30 01:47:59;;;;;;;;;6.00;6.00;;;;;19.54;62.73;-19729.88;5004166;27;45465;-71
2022/10/30 01:50:40;;;;;;;;;9.00;7.67;;;;;19.53;62.85;-19729.47;5000715;27;45472;-71
2022/10/30 01:53:06;;;;;;;;;9.67;6.67;;;;;19.53;63.14;-19729.59;4982500;27;45400;-72
2022/10/30 01:55:46;;;;;;;;;6.33;6.00;;;;;19.57;62.81;-19730.53;4993183;27;45375;-71
2022/10/30 01:58:31;;;;;;;;;10.00;7.67;;;;;19.58;62.49;-19730.94;4993372;27;45481;-71
2022/10/30 02:00:58;;;;;;;;;7.67;7.67;;;;;19.63;62.52;-19732.00;4986720;27;46549;-71
2022/10/30 02:03:25;;;;;;;;;10.33;9.67;;;;;19.40;62.48;-19726.13;4978676;27;45904;-71
2022/10/30 02:05:52;;;;;;;;;11.00;9.00;;;;;19.71;62.78;-19734.13;4987621;27;45637;-71
2022/10/30 02:08:19;;;;;;;;;9.00;9.00;;;;;19.73;62.82;-19734.69;4984549;27;45786;-71
2022/10/30 02:10:47;;;;;;;;;10.00;8.00;;;;;19.74;63.06;-19735.06;4983873;27;47077;-72
2022/10/30 02:13:13;;;;;;;;;11.33;9.33;;;;;19.76;62.98;-19735.47;4978965;28;45510;-71
2022/10/30 02:15:40;;;;;;;;;11.00;8.00;;;;;19.78;62.99;-19736.16;4990571;27;45436;-71
2022/10/30 02:18:06;;;;;;;;;10.00;8.33;;;;;19.81;62.74;-19736.94;4982529;27;45436;-71
2022/10/30 02:20:32;;;;;;;;;7.00;7.00;;;;;19.84;62.69;-19737.47;4999879;27;45555;-71
2022/10/30 02:22:58;;;;;;;;;13.00;9.67;;;;;19.86;62.86;-19738.00;4995170;27;45474;-72
2022/10/30 02:25:24;;;;;;;;;7.67;6.33;;;;;19.84;62.33;-19737.59;4978399;27;46562;-71
2022/10/30 02:27:50;;;;;;;;;10.00;9.00;;;;;19.89;62.34;-19738.94;4980590;27;45614;-71
2022/10/30 02:30:15;;;;;;;;;12.00;8.00;;;;;19.61;62.21;-19731.59;4963798;27;47304;-71
2022/10/30 02:32:41;;;;;;;;;11.00;8.33;;;;;19.93;62.55;-19739.88;4991031;28;45644;-71
2022/10/30 02:35:07;;;;;;;;;10.33;7.00;;;;;19.93;62.30;-19740.00;4997239;27;45468;-71
2022/10/30 02:37:34;;;;;;;;;6.67;6.00;;;;;19.96;61.93;-19740.69;4975826;28;45610;-71
2022/10/30 02:40:00;;;;;;;;;8.00;6.33;;;;;19.96;61.71;-19740.69;4973721;27;46612;-71
2022/10/30 02:42:26;;;;;;;;;9.67;7.00;;;;;19.89;61.78;-19738.81;4990098;27;45424;-71
2022/10/30 02:44:51;;;;;;;;;7.00;6.00;;;;;19.93;61.63;-19740.00;4983606;28;45427;-71
2022/10/30 02:47:16;;;;;;;;;5.33;5.33;;;;;20.06;61.95;-19743.22;5005611;27;45510;-72
2022/10/30 02:49:42;;;;;;;;;8.00;7.00;;;;;19.91;61.34;-19739.34;4998536;27;46390;-71
2022/10/30 02:52:08;;;;;;;;;6.00;6.00;;;;;20.09;61.72;-19744.16;5001156;28;45349;-71
2022/10/30 02:54:34;;;;;;;;;7.00;7.00;;;;;20.11;61.77;-19744.53;4994313;27;45316;-71
2022/10/30 02:57:00;;;;;;;;;7.33;7.33;;;;;19.92;61.41;-19739.59;4982597;28;45402;-71
2022/10/30 02:59:25;;;;;;;;;4.33;4.33;;;;;19.95;61.52;-19740.53;4994627;27;46412;-71
2022/10/30 03:01:50;;;;;;;;;10.33;7.33;;;;;20.14;61.23;-19745.34;4989583;27;45246;-71
2022/10/30 03:04:16;;;;;;;;;8.67;6.67;;;;;20.12;60.92;-19744.94;4996240;27;45394;-71
2022/10/30 03:06:41;;;;;;;;;8.33;7.00;;;;;19.78;60.88;-19736.00;4980664;28;45523;-71
2022/10/30 03:09:07;;;;;;;;;9.00;7.00;;;;;20.20;61.54;-19747.06;4980466;27;46452;-71
2022/10/30 03:11:33;;;;;;;;;6.00;5.00;;;;;20.08;61.30;-19743.88;4982846;28;45370;-71
2022/10/30 03:13:58;;;;;;;;;7.33;6.33;;;;;20.27;61.28;-19748.69;4973135;28;45507;-71
2022/10/30 03:16:28;;;;;;;;;6.00;6.00;;;;;20.23;61.28;-19747.88;4985047;28;45554;-71
2022/10/30 03:18:54;;;;;;;;;6.67;6.67;;;;;20.24;60.73;-19748.16;4985272;27;47225;-71
2022/10/30 03:21:22;;;;;;;;;6.00;5.67;;;;;20.19;61.59;-19746.69;5004248;27;45972;-71
2022/10/30 03:23:49;;;;;;;;;8.00;7.00;;;;;20.22;61.43;-19747.47;5001761;27;45491;-71
2022/10/30 03:26:15;;;;;;;;;9.33;6.67;;;;;20.25;60.77;-19748.28;4987718;27;45412;-71
2022/10/30 03:28:41;;;;;;;;;6.33;6.33;;;;;19.97;61.74;-19741.09;4977776;27;46026;-71
2022/10/30 03:31:09;;;;;;;;;9.33;5.67;;;;;20.02;61.44;-19742.41;4978406;28;45453;-71
2022/10/30 03:33:35;;;;;;;;;6.67;6.67;;;;;20.18;60.96;-19746.53;4983150;27;45510;-71
2022/10/30 03:36:01;;;;;;;;;7.33;7.33;;;;;19.80;62.08;-19736.53;4996939;28;45474;-71
2022/10/30 03:38:27;;;;;;;;;6.33;5.00;;;;;19.86;62.45;-19738.00;4988095;27;45541;-71
2022/10/30 03:40:53;;;;;;;;;9.00;9.00;;;;;20.10;61.71;-19744.41;4992089;28;45378;-71
2022/10/30 03:43:20;;;;;;;;;8.00;7.00;;;;;19.73;62.05;-19734.69;4984222;27;46304;-71
2022/10/30 03:45:47;;;;;;;;;7.67;6.67;;;;;19.78;62.15;-19736.16;4997721;27;45436;-71
2022/10/30 03:48:13;;;;;;;;;6.67;6.33;;;;;19.88;62.13;-19738.69;4990434;27;46362;-71
2022/10/30 03:50:39;;;;;;;;;9.33;6.33;;;;;20.09;61.69;-19744.16;4991260;28;45518;-71
2022/10/30 03:53:05;;;;;;;;;5.00;5.00;;;;;19.95;61.86;-19740.53;4983711;28;45523;-71
2022/10/30 03:55:30;;;;;;;;;8.67;8.67;;;;;19.76;62.49;-19735.47;5005976;27;45357;-71
2022/10/30 03:57:56;;;;;;;;;10.33;7.67;;;;;19.84;61.95;-19737.47;4984675;28;48320;-71
2022/10/30 04:00:21;;;;;;;;;8.00;7.00;;;;;19.65;62.94;-19732.66;5004948;27;46562;-71
2022/10/30 04:02:49;;;;;;;;;11.33;10.67;;;;;19.89;63.09;-19738.94;4994000;27;45841;-71
2022/10/30 04:05:16;;;;;;;;;9.33;9.33;;;;;19.63;63.33;-19732.13;4990745;27;46487;-71
2022/10/30 04:07:42;;;;;;;;;8.67;8.67;;;;;19.61;63.45;-19731.59;4984968;27;46158;-71
2022/10/30 04:10:08;;;;;;;;;10.00;9.00;;;;;19.58;63.26;-19730.94;4989302;27;45448;-71
2022/10/30 04:12:34;;;;;;;;;13.67;10.00;;;;;19.56;63.75;-19730.28;4995490;27;45495;-71
2022/10/30 04:15:00;;;;;;;;;11.67;10.67;;;;;19.53;63.77;-19729.59;4991315;27;45359;-71
2022/10/30 04:17:26;;;;;;;;;15.33;13.67;;;;;19.54;63.49;-19729.72;4986584;27;46116;-71
2022/10/30 04:19:51;;;;;;;;;15.67;15.67;;;;;19.51;63.62;-19728.94;5029182;27;45297;-71
2022/10/30 04:22:16;;;;;;;;;19.33;15.67;;;;;19.52;63.88;-19729.19;4983845;28;45888;-71
2022/10/30 04:24:43;;;;;;;;;19.67;17.33;;;;;19.22;63.43;-19721.31;5006105;27;45606;-71
2022/10/30 04:27:09;;;;;;;;;17.67;15.67;;;;;19.49;63.50;-19728.53;4988869;27;46771;-71
2022/10/30 04:29:36;;;;;;;;;18.67;18.33;;;;;19.50;63.51;-19728.66;4981189;27;45543;-71
2022/10/30 04:32:02;;;;;;;;;19.33;16.00;;;;;19.33;63.83;-19724.41;4982148;27;45543;-71
2022/10/30 04:34:28;;;;;;;;;21.00;17.00;;;;;19.60;63.43;-19731.47;4991904;27;45485;-71
2022/10/30 04:36:54;;;;;;;;;13.67;13.33;;;;;19.49;63.35;-19728.41;5003192;27;46170;-71
2022/10/30 04:39:20;;;;;;;;;18.00;18.00;;;;;19.57;63.74;-19730.53;4973274;28;45622;-71
2022/10/30 04:41:45;;;;;;;;;14.33;14.33;;;;;19.56;63.87;-19730.28;4979352;27;45586;-71
2022/10/30 04:44:11;;;;;;;;;19.67;16.00;;;;;19.52;63.55;-19729.19;4981298;27;45592;-71
2022/10/30 04:46:36;;;;;;;;;17.67;13.00;;;;;19.50;63.45;-19728.66;5009745;27;46089;-71
2022/10/30 04:49:01;;;;;;;;;14.00;11.00;;;;;19.54;63.44;-19729.72;5006344;27;45398;-71
2022/10/30 04:51:27;;;;;;;;;9.00;6.67;;;;;19.27;63.59;-19722.66;4994284;27;45481;-71
2022/10/30 04:53:53;;;;;;;;;17.67;13.67;;;;;19.49;63.79;-19728.53;4997299;27;45220;-71
2022/10/30 04:56:18;;;;;;;;;13.67;12.67;;;;;19.32;63.99;-19724.13;4992249;27;45911;-71
2022/10/30 04:58:44;;;;;;;;;14.67;14.67;;;;;19.45;64.08;-19727.34;4989397;27;45523;-70
2022/10/30 05:01:09;;;;;;;;;12.00;11.33;;;;;19.38;64.26;-19725.72;4987061;27;45427;-71
2022/10/30 05:03:34;;;;;;;;;14.00;13.33;;;;;19.45;64.16;-19727.47;4992470;27;45723;-71
2022/10/30 05:06:03;;;;;;;;;13.00;13.00;;;;;19.41;64.21;-19726.41;4981656;27;47060;-71
2022/10/30 05:08:29;;;;;;;;;11.67;11.67;;;;;19.17;64.04;-19720.13;4990976;27;45458;-71
2022/10/30 05:10:55;;;;;;;;;15.33;12.67;;;;;19.40;64.30;-19726.25;4987848;27;45741;-71
2022/10/30 05:13:21;;;;;;;;;13.33;11.00;;;;;19.21;63.92;-19721.06;4996667;28;45397;-71
2022/10/30 05:15:47;;;;;;;;;12.67;12.00;;;;;19.38;64.43;-19725.59;4988693;27;46348;-71
2022/10/30 05:18:12;;;;;;;;;12.00;12.00;;;;;19.34;64.20;-19724.53;4991325;27;45735;-71
2022/10/30 05:20:37;;;;;;;;;16.33;12.67;;;;;19.24;64.06;-19722.00;4999666;27;45789;-71
2022/10/30 05:23:03;;;;;;;;;8.00;7.33;;;;;19.27;64.84;-19722.66;5004274;27;45306;-71
2022/10/30 05:25:29;;;;;;;;;13.33;12.33;;;;;19.26;64.97;-19722.53;5010208;27;45689;-71
2022/10/30 05:28:03;;;;;;;;;14.33;12.33;;;;;19.21;64.18;-19721.06;4980858;27;45627;-71
2022/10/30 05:30:31;;;;;;;;;12.00;12.00;;;;;19.13;64.38;-19719.06;4977206;27;46093;-71
2022/10/30 05:33:01;;;;;;;;;14.67;11.67;;;;;19.19;65.03;-19720.78;4970807;28;45801;-71
2022/10/30 05:35:28;;;;;;;;;12.67;11.33;;;;;18.95;65.03;-19714.50;4980067;27;46763;-71
2022/10/30 05:37:53;;;;;;;;;13.00;11.33;;;;;19.12;65.07;-19718.78;4978075;27;45438;-71
2022/10/30 05:40:19;;;;;;;;;12.67;10.33;;;;;19.01;65.38;-19716.00;4980794;27;45572;-71
2022/10/30 05:42:48;;;;;;;;;11.33;11.33;;;;;19.14;65.32;-19719.31;4980166;27;45511;-71
2022/10/30 05:45:14;;;;;;;;;14.33;13.00;;;;;18.99;65.40;-19715.44;4977568;28;45671;-71
2022/10/30 05:47:39;;;;;;;;;14.33;12.67;;;;;19.10;65.16;-19718.38;4977491;27;45648;-71
2022/10/30 05:50:06;;;;;;;;;11.67;10.33;;;;;19.09;65.55;-19718.13;4980721;27;45886;-71
2022/10/30 05:52:31;;;;;;;;;16.67;13.33;;;;;19.08;64.99;-19717.84;5006048;27;45651;-71
2022/10/30 05:54:57;;;;;;;;;13.67;9.00;;;;;19.00;65.33;-19715.59;4980207;28;45654;-71
2022/10/30 05:57:22;;;;;;;;;12.00;12.00;;;;;18.81;65.22;-19710.66;4979607;27;45983;-71
2022/10/30 05:59:48;;;;;;;;;12.33;11.67;;;;;18.81;65.23;-19710.66;4979132;27;45507;-71
2022/10/30 06:02:15;;;;;;;;;11.00;11.00;;;;;18.97;65.47;-19714.91;4980752;27;45571;-71
2022/10/30 06:04:40;;;;;;;;;16.67;11.00;;;;;18.95;65.43;-19714.38;4979467;27;46133;-71
2022/10/30 06:07:05;;;;;;;;;11.67;10.33;;;;;19.05;65.48;-19717.06;4978862;27;45487;-71
2022/10/30 06:09:31;;;;;;;;;12.00;9.67;;;;;19.04;65.61;-19716.78;4981897;27;45432;-71
2022/10/30 06:11:57;;;;;;;;;13.67;12.33;;;;;18.91;65.40;-19713.44;4993320;27;45682;-71
2022/10/30 06:14:22;;;;;;;;;12.67;10.00;;;;;19.00;65.83;-19715.72;4989014;27;46073;-71
2022/10/30 06:16:48;;;;;;;;;12.00;10.67;;;;;19.01;65.33;-19716.00;4986520;27;45380;-71
2022/10/30 06:19:13;;;;;;;;;10.33;8.67;;;;;19.02;65.78;-19716.25;4980372;28;45572;-71
2022/10/30 06:21:39;;;;;;;;;8.67;8.67;;;;;19.03;65.71;-19716.38;5004681;28;46399;-71
2022/10/30 06:24:04;;;;;;;;;11.00;9.67;;;;;19.00;65.72;-19715.72;4998594;28;45595;-71
2022/10/30 06:26:30;;;;;;;;;11.33;9.33;;;;;18.96;65.20;-19714.66;5004030;27;45344;-71
2022/10/30 06:28:55;;;;;;;;;12.00;11.67;;;;;18.98;65.48;-19715.31;4991377;28;45401;-71
2022/10/30 06:31:20;;;;;;;;;10.00;8.67;;;;;18.94;65.66;-19714.13;4970226;27;45382;-71
2022/10/30 06:33:46;;;;;;;;;6.67;5.67;;;;;18.90;65.48;-19713.03;4972937;28;46082;-70
2022/10/30 06:36:11;;;;;;;;;10.33;9.67;;;;;18.88;65.81;-19712.66;4990334;27;45486;-71
2022/10/30 06:38:37;;;;;;;;;10.00;8.67;;;;;18.86;65.91;-19711.97;4975047;28;45463;-71
2022/10/30 06:41:02;;;;;;;;;11.67;9.33;;;;;18.77;65.43;-19709.84;4972884;27;45350;-71
2022/10/30 06:43:27;;;;;;;;;12.00;9.33;;;;;18.96;65.75;-19714.78;4995820;27;47606;-71
2022/10/30 06:45:53;;;;;;;;;10.67;10.33;;;;;18.94;65.33;-19714.25;5008902;27;45450;-71
2022/10/30 06:48:18;;;;;;;;;8.33;8.33;;;;;18.83;66.09;-19711.31;4972430;28;45298;-71
2022/10/30 06:50:43;;;;;;;;;11.67;9.67;;;;;18.80;66.19;-19710.38;5006490;27;45589;-71
2022/10/30 06:53:09;;;;;;;;;12.33;11.00;;;;;18.61;66.14;-19705.56;4999186;27;45824;-71
2022/10/30 06:55:34;;;;;;;;;13.33;11.67;;;;;18.79;65.98;-19710.09;4960275;27;45383;-71
2022/10/30 06:58:00;;;;;;;;;11.33;11.33;;;;;18.80;65.95;-19710.38;4985875;27;47036;-71
2022/10/30 07:00:25;;;;;;;;;17.33;13.00;;;;;18.63;66.30;-19706.09;4986648;27;45426;-71
2022/10/30 07:03:01;;;;;;;;;12.00;9.33;;;;;18.76;65.93;-19709.44;4991230;28;45514;-71
2022/10/30 07:05:26;;;;;;;;;12.33;11.00;;;;;18.85;65.83;-19711.84;4972209;27;45936;-71
2022/10/30 07:07:55;;;;;;;;;6.00;6.00;;;;;18.86;65.82;-19712.09;4998261;27;45702;-71
2022/10/30 07:10:20;;;;;;;;;11.67;11.67;;;;;18.90;66.22;-19713.19;4981778;27;45600;-71
2022/10/30 07:12:53;;;;;;;;;13.67;11.67;;;;;18.88;66.16;-19712.66;5001736;28;45316;-71
2022/10/30 07:15:18;;;;;;;;;12.67;11.33;;;;;18.88;66.24;-19712.66;4971457;27;45575;-71
2022/10/30 07:17:54;;;;;;;;;16.00;12.00;;;;;18.87;66.38;-19712.25;4999323;27;46046;-71
2022/10/30 07:20:20;;;;;;;;;14.33;13.33;;;;;18.93;66.15;-19713.97;5005079;27;45522;-71
2022/10/30 07:22:45;;;;;;;;;11.00;10.67;;;;;18.96;66.65;-19714.66;4999891;27;46028;-71
2022/10/30 07:25:11;;;;;;;;;18.33;12.33;;;;;18.84;66.11;-19711.44;4990325;27;45346;-71
2022/10/30 07:27:44;;;;;;;;;13.00;12.00;;;;;18.99;66.43;-19715.44;4972133;28;45294;-70
2022/10/30 07:30:11;;;;;;;;;13.00;9.67;;;;;19.03;66.45;-19716.38;4951011;28;45670;-71
2022/10/30 07:32:37;;;;;;;;;14.33;13.00;;;;;19.09;66.18;-19718.00;4969142;28;48429;-71
2022/10/30 07:35:03;;;;;;;;;13.67;12.67;;;;;19.06;65.87;-19717.31;4984177;28;45621;-71
2022/10/30 07:37:28;;;;;;;;;15.67;15.00;;;;;18.86;66.36;-19712.09;4977342;27;45520;-71
2022/10/30 07:39:54;;;;;;;;;12.67;12.00;;;;;19.11;66.60;-19718.66;4981596;27;45523;-71
2022/10/30 07:42:19;;;;;;;;;10.67;9.67;;;;;19.04;66.20;-19716.66;4979223;27;45827;-71
2022/10/30 07:44:45;;;;;;;;;13.33;12.67;;;;;18.84;65.94;-19711.56;4982728;27;46501;-71
2022/10/30 07:47:10;;;;;;;;;14.00;14.00;;;;;19.25;65.67;-19722.25;4980780;27;45456;-71
2022/10/30 07:49:35;;;;;;;;;12.67;11.00;;;;;19.13;65.58;-19719.06;4983093;27;45380;-71
2022/10/30 07:52:02;;;;;;;;;9.67;9.67;;;;;19.25;65.74;-19722.13;5049641;28;45900;-71
2022/10/30 07:54:27;;;;;;;;;12.67;11.67;;;;;19.24;65.97;-19722.00;4981507;27;45472;-71
2022/10/30 07:56:53;;;;;;;;;14.67;12.00;;;;;19.27;65.74;-19722.78;4966636;28;45519;-71
2022/10/30 07:59:18;;;;;;;;;10.67;10.33;;;;;19.39;65.50;-19725.88;4996001;27;45822;-71
2022/10/30 08:01:43;;;;;;;;;6.33;6.33;;;;;19.28;65.93;-19723.06;4998488;27;46029;-70
2022/10/30 08:04:10;;;;;;;;;17.00;15.67;;;;;19.51;65.86;-19728.94;4978683;27;45352;-70
2022/10/30 08:06:35;;;;;;;;;13.00;10.67;;;;;19.59;65.08;-19731.19;4994958;27;45341;-70
2022/10/30 08:09:01;;;;;;;;;13.00;13.00;;;;;19.21;65.65;-19721.06;4995834;27;45424;-71
2022/10/30 08:11:26;;;;;;;;;8.00;8.00;;;;;19.33;64.75;-19724.25;4998255;27;45963;-71
2022/10/30 08:13:51;;;;;;;;;14.33;12.33;;;;;19.64;64.80;-19732.41;4996236;27;45277;-71
2022/10/30 08:16:17;;;;;;;;;12.00;10.33;;;;;19.84;64.61;-19737.59;4997259;27;45269;-71
2022/10/30 08:18:42;;;;;;;;;13.00;11.67;;;;;19.84;64.63;-19737.47;4982044;27;45542;-71
2022/10/30 08:21:09;;;;;;;;;12.00;11.67;;;;;19.65;63.96;-19732.66;5001257;27;46302;-72
2022/10/30 08:23:34;;;;;;;;;10.33;9.67;;;;;19.83;64.47;-19737.34;4999133;27;45330;-72
2022/10/30 08:26:00;;;;;;;;;13.00;11.67;;;;;19.95;64.39;-19740.41;4995713;27;45338;-72
2022/10/30 08:28:25;;;;;;;;;12.33;11.00;;;;;19.99;64.72;-19741.47;4995965;27;45368;-72
2022/10/30 08:30:50;;;;;;;;;8.67;8.67;;;;;19.89;64.88;-19738.94;4995573;27;47493;-72
2022/10/30 08:33:16;;;;;;;;;11.67;9.33;;;;;19.78;64.90;-19736.16;4995512;27;45393;-72
2022/10/30 08:35:49;;;;;;;;;15.33;14.33;;;;;20.03;64.49;-19742.69;4995858;27;45409;-72
2022/10/30 08:38:15;;;;;;;;;12.00;11.33;;;;;20.09;64.46;-19744.00;4995860;27;45373;-72
2022/10/30 08:40:41;;;;;;;;;13.67;13.33;;;;;20.12;64.49;-19744.94;4995446;27;45457;-72
2022/10/30 08:43:07;;;;;;;;;11.33;11.33;;;;;20.03;64.21;-19742.53;4994933;27;45533;-72
2022/10/30 08:45:33;;;;;;;;;11.67;11.33;;;;;19.98;63.89;-19741.34;5047988;27;45394;-72
2022/10/30 08:48:00;;;;;;;;;14.33;14.00;;;;;20.21;64.27;-19747.34;5011521;27;46385;-72
2022/10/30 08:50:26;;;;;;;;;14.00;11.00;;;;;20.24;63.76;-19748.00;4977927;28;45457;-72
2022/10/30 08:52:51;;;;;;;;;7.67;7.33;;;;;20.31;63.84;-19749.88;4995347;27;45341;-72
2022/10/30 08:55:16;;;;;;;;;11.67;11.00;;;;;20.37;63.30;-19751.34;4977713;28;45297;-72
2022/10/30 08:57:42;;;;;;;;;11.33;10.00;;;;;20.41;63.49;-19752.53;4978032;28;45278;-72
2022/10/30 09:00:08;;;;;;;;;10.33;10.33;;;;;20.47;63.43;-19754.00;4995495;27;45515;-72
2022/10/30 09:02:38;;;;;;;;;12.33;11.67;;;;;20.32;63.66;-19750.00;4995065;27;45377;-72
2022/10/30 09:05:04;;;;;;;;;15.00;13.67;;;;;20.59;63.52;-19757.09;4995678;27;45456;-72
2022/10/30 09:07:30;;;;;;;;;9.33;7.33;;;;;20.55;63.62;-19756.00;4993987;27;45530;-72
2022/10/30 09:09:55;;;;;;;;;16.00;12.33;;;;;20.71;63.04;-19760.16;4977382;28;46238;-72
2022/10/30 09:12:21;;;;;;;;;11.67;8.33;;;;;20.78;62.60;-19762.16;4995185;27;45327;-72
2022/10/30 09:14:46;;;;;;;;;15.33;12.67;;;;;20.82;62.28;-19763.06;4977796;28;45465;-72
2022/10/30 09:17:12;;;;;;;;;15.67;13.00;;;;;20.77;61.72;-19761.75;4995498;27;45417;-72
2022/10/30 09:19:38;;;;;;;;;13.00;13.00;;;;;20.81;61.25;-19762.94;4977451;28;46043;-72
2022/10/30 09:22:03;;;;;;;;;11.67;11.67;;;;;20.89;61.94;-19764.81;4995047;27;45424;-72
2022/10/30 09:24:28;;;;;;;;;15.33;11.67;;;;;21.02;61.73;-19768.28;4995055;27;45878;-72
2022/10/30 09:26:54;;;;;;;;;16.00;15.67;;;;;21.07;62.12;-19769.75;4995267;27;45426;-72
2022/10/30 09:29:20;;;;;;;;;13.00;11.67;;;;;21.16;62.05;-19772.00;4995202;27;46096;-72
2022/10/30 09:31:45;;;;;;;;;15.33;12.33;;;;;21.26;61.71;-19774.53;4995027;27;45347;-72
2022/10/30 09:34:11;;;;;;;;;15.33;12.67;;;;;21.34;61.43;-19776.66;4977814;28;45404;-72
2022/10/30 09:36:37;;;;;;;;;15.67;15.67;;;;;21.44;61.59;-19779.31;4995153;27;45373;-72
2022/10/30 09:39:02;;;;;;;;;10.67;10.67;;;;;21.57;60.38;-19782.66;4994626;27;46202;-72
2022/10/30 09:41:37;;;;;;;;;14.33;12.67;;;;;21.62;60.10;-19783.84;4993991;27;45481;-72
2022/10/30 09:44:08;;;;;;;;;10.33;9.00;;;;;21.57;59.88;-19782.66;4995121;27;45385;-72
2022/10/30 09:46:52;;;;;;;;;9.00;8.67;;;;;21.62;59.47;-19784.00;4995145;27;45378;-72
2022/10/30 09:49:34;;;;;;;;;10.67;9.33;;;;;21.67;58.90;-19785.31;4994355;27;45545;-72
2022/10/30 09:52:02;;;;;;;;;12.67;9.67;;;;;21.66;58.74;-19785.06;4994728;27;45411;-72
2022/10/30 09:54:50;;;;;;;;;12.67;11.67;;;;;21.58;58.42;-19782.91;4994629;27;45537;-72
2022/10/30 09:57:15;;;;;;;;;11.33;10.33;;;;;21.65;58.51;-19784.78;4995147;27;45244;-72
2022/10/30 10:00:00;;;;;;;;;13.00;10.67;;;;;21.68;58.62;-19785.44;4994028;27;45451;-72
2022/10/30 10:02:48;;;;;;;;;11.00;8.00;;;;;21.53;58.80;-19781.47;4994471;27;45318;-72
2022/10/30 10:05:44;;;;;;;;;9.67;9.67;;;;;21.63;58.22;-19784.13;4994616;27;45590;-72
2022/10/30 10:08:30;;;;;;;;;6.33;6.33;;;;;21.52;58.65;-19781.19;4994942;27;45415;-80
2022/10/30 10:11:11;;;;;;;;;11.33;9.33;;;;;21.64;58.53;-19784.53;4994493;27;45366;-80
2022/10/30 10:13:49;;;;;;;;;7.67;7.67;;;;;21.64;58.77;-19784.38;4993934;27;45429;-80
2022/10/30 10:16:14;;;;;;;;;12.67;9.67;;;;;21.81;58.26;-19788.91;4994744;27;45436;-79
2022/10/30 10:18:46;;;;;;;;;8.33;8.00;;;;;21.64;57.82;-19784.38;4994486;27;45466;-79
2022/10/30 10:21:23;;;;;;;;;5.67;5.00;;;;;21.88;57.18;-19790.63;4994697;27;45483;-79
2022/10/30 10:23:53;;;;;;;;;6.00;5.00;;;;;21.68;56.14;-19785.59;4989310;27;45317;-79
2022/10/30 10:26:35;;;;;;;;;10.00;7.00;;;;;21.90;56.57;-19791.16;4987128;28;45255;-79
2022/10/30 10:29:45;;;;;;;;;5.00;5.00;;;;;21.85;56.28;-19789.84;4994718;27;45416;-79
2022/10/30 10:32:47;;;;;;;;;7.00;5.67;;;;;21.92;56.35;-19791.69;4981571;27;47435;-79
2022/10/30 10:35:50;;;;;;;;;6.00;6.00;;;;;21.95;56.72;-19792.50;4994194;27;45304;-79
2022/10/30 10:38:15;;;;;;;;;6.67;6.33;;;;;21.98;56.08;-19793.28;4994235;27;45396;-79
2022/10/30 10:40:43;;;;;;;;;8.67;5.67;;;;;21.95;55.91;-19792.38;4994628;27;45489;-79
2022/10/30 10:43:17;;;;;;;;;3.00;3.00;;;;;21.94;56.04;-19792.25;4993692;27;45715;-79
2022/10/30 10:45:48;;;;;;;;;8.00;4.75;;;;;22.10;55.87;-19796.34;4993925;27;45349;-79
2022/10/30 10:48:22;;;;;;;;;7.00;5.33;;;;;22.10;56.33;-19796.50;4993775;27;45362;-79
2022/10/30 10:50:55;;;;;;;;;3.33;3.33;;;;;22.12;56.29;-19797.03;4993965;27;45523;-79
2022/10/30 10:53:28;;;;;;;;;7.67;6.00;;;;;22.00;56.48;-19793.84;4996482;27;45366;-80
2022/10/30 10:55:58;;;;;;;;;7.00;7.00;;;;;22.24;56.47;-19799.94;4996786;27;45283;-80
2022/10/30 10:58:37;;;;;;;;;8.00;6.67;;;;;22.18;56.69;-19798.50;5030828;27;45702;-80
2022/10/30 11:01:11;;;;;;;;;9.33;8.33;;;;;22.13;56.10;-19797.16;5002602;27;45301;-80
2022/10/30 11:03:48;;;;;;;;;6.67;6.67;;;;;22.08;56.16;-19795.81;4996525;27;46066;-79
2022/10/30 11:06:21;;;;;;;;;8.00;7.67;;;;;22.03;56.28;-19794.63;4995156;27;45323;-79
2022/10/30 11:08:47;;;;;;;;;8.00;6.50;;;;;22.04;56.42;-19794.75;4996549;27;45290;-72
2022/10/30 11:11:13;;;;;;;;;7.33;6.00;;;;;22.38;56.35;-19803.53;4997215;27;45464;-72
2022/10/30 11:13:41;;;;;;;;;5.67;5.67;;;;;22.49;56.77;-19806.59;4996366;27;46288;-72
2022/10/30 11:16:15;;;;;;;;;8.00;6.67;;;;;22.74;56.26;-19812.97;4996721;27;45425;-72
2022/10/30 11:18:41;;;;;;;;;6.33;6.33;;;;;22.87;56.37;-19816.44;4978920;27;45419;-72
2022/10/30 11:21:12;;;;;;;;;6.00;6.00;;;;;23.20;55.90;-19824.94;4995182;27;45582;-72
2022/10/30 11:23:47;;;;;;;;;8.00;8.00;;;;;23.95;54.56;-19844.47;4996191;27;46607;-72